Vassalboro, Maine
Current Conditions -  °F | °C
As of 8:55 AM on Wednesday 28 Jan 2015 (Local Time) from KWVL Reporting Station
Clear Clear  
Wind Chill: -5°   Ceiling: Unl
Heat Index: 12°   Visibility: 8mi
Dew Point: 10°   Wind: 18mph
Humidity: 92%   Direction: 330°NNW
Pressure: 29.82"   Gusts: 23mph
Location:  44.46°N, 69.68°W
Report Text: KWVL 281355Z 33016G20KT 8SM CLR M11/M12 A2982 RMK AO1
Loading
Personal Weather Stations






























Interactive Weather Map New forecast layout! Learn more

10-Day Weather Forecast

Advertisements
Track Severe Weather on mobile